KELY

Ely Arpt / Yelland Field / Airport

Ely, Nevada, USA
KELY 162334Z 1700/1724 27010KT P6SM VCTS BKN110CB FM170500 19009KT P6SM VCSH BKN090 FM170900 19007KT P6SM SCT090 FM172000 28008KT P6SM SCT090
Issued Valid From Valid To
Jul-16 @ 23:34 UTC
(50 minutes ago)
Jul-17 @ 00:00 UTC
(24 minutes ago)
Jul-18 @ 00:00 UTC
(in 24 hours)
Jul-17 @ 00:00 to Jul-17 @ 05:00
KELY 162334Z 1700/1724 27010KT P6SM VCTS BKN110CB
Wind Visibility Clouds Conditions
270° at 10 knots Greater than 6 miles
  • Broken at 11,000' AGL
  • Area Thunderstorm
From Jul-17 @ 05:00 to Jul-17 @ 09:00
FM170500 19009KT P6SM VCSH BKN090
Wind Visibility Clouds
190° at 9 knots Greater than 6 miles
  • Broken at 9,000' AGL
From Jul-17 @ 09:00 to Jul-17 @ 20:00
FM170900 19007KT P6SM SCT090
Wind Visibility Clouds
190° at 7 knots Greater than 6 miles
  • Scattered at 9,000' AGL
From Jul-17 @ 20:00 to Jul-18 @ 00:00
FM172000 28008KT P6SM SCT090
Wind Visibility Clouds
280° at 8 knots Greater than 6 miles
  • Scattered at 9,000' AGL
KELY 162334Z 1700/1724 27010KT P6SM VCTS BKN110CB FM170500 19009KT P6SM VCSH BKN090 FM170900 19007KT P6SM SCT090 FM172000 28008KT P6SM SCT090
Issued Jul-16 @ 23:34 UTC
(50 minutes ago)
Valid From Jul-17 @ 00:00 UTC
(24 minutes ago)
Valid To Jul-18 @ 00:00 UTC
(in 24 hours)
Jul-17 @ 00:00 - Jul-17 @ 05:00
Wind Visibility
270° at 10 knots Greater than 6 miles
Clouds
  • Broken at 11,000' AGL
Conditions
  • Area Thunderstorm
From Jul-17 @ 05:00 - Jul-17 @ 09:00
Wind Visibility
190° at 9 knots Greater than 6 miles
Clouds
  • Broken at 9,000' AGL
From Jul-17 @ 09:00 - Jul-17 @ 20:00
Wind Visibility
190° at 7 knots Greater than 6 miles
Clouds
  • Scattered at 9,000' AGL
From Jul-17 @ 20:00 - Jul-18 @ 00:00
Wind Visibility
280° at 8 knots Greater than 6 miles
Clouds
  • Scattered at 9,000' AGL